createdAt,value
2023-03-20T00:00:27.587Z,1009.45
2023-03-20T00:01:27.525Z,1009.46
2023-03-20T00:02:27.531Z,1009.45
2023-03-20T00:03:27.557Z,1009.43
2023-03-20T00:04:27.546Z,1009.43
2023-03-20T00:05:27.522Z,1009.44
2023-03-20T00:06:27.484Z,1009.42
2023-03-20T00:07:27.494Z,1009.43
2023-03-20T00:08:29.674Z,1009.44
2023-03-20T00:09:27.448Z,1009.46
2023-03-20T00:10:27.472Z,1009.47
2023-03-20T00:11:27.430Z,1009.48
2023-03-20T00:12:27.412Z,1009.48
2023-03-20T00:13:27.399Z,1009.47
2023-03-20T00:14:27.383Z,1009.43
2023-03-20T00:15:27.410Z,1009.47
2023-03-20T00:16:27.477Z,1009.41
2023-03-20T00:17:27.365Z,1009.42
2023-03-20T00:18:27.359Z,1009.44
2023-03-20T00:19:27.337Z,1009.42
2023-03-20T00:20:28.354Z,1009.43
2023-03-20T00:21:27.326Z,1009.35
2023-03-20T00:22:27.311Z,1009.37
2023-03-20T00:23:27.290Z,1009.42
2023-03-20T00:24:27.302Z,1009.40
2023-03-20T00:25:27.304Z,1009.36
2023-03-20T00:26:27.268Z,1009.39
2023-03-20T00:27:27.236Z,1009.40
2023-03-20T00:28:27.232Z,1009.39
2023-03-20T00:29:27.221Z,1009.44
2023-03-20T00:30:27.248Z,1009.43
2023-03-20T00:31:27.216Z,1009.41
2023-03-20T00:32:27.183Z,1009.36
2023-03-20T00:33:27.194Z,1009.39
2023-03-20T00:34:27.231Z,1009.41
2023-03-20T00:35:27.190Z,1009.41
2023-03-20T00:36:27.151Z,1009.38
2023-03-20T00:37:27.130Z,1009.37
2023-03-20T00:38:27.125Z,1009.38
2023-03-20T00:39:27.127Z,1009.44
2023-03-20T00:40:27.146Z,1009.40
2023-03-20T00:41:27.073Z,1009.37
2023-03-20T00:42:27.082Z,1009.33
2023-03-20T00:43:27.070Z,1009.38
2023-03-20T00:44:27.126Z,1009.40
2023-03-20T00:45:27.066Z,1009.41
2023-03-20T00:46:27.104Z,1009.39
2023-03-20T00:47:27.053Z,1009.39
2023-03-20T00:48:27.007Z,1009.40
2023-03-20T00:49:27.009Z,1009.35
2023-03-20T00:50:27.028Z,1009.39
2023-03-20T00:51:26.971Z,1009.37
2023-03-20T00:52:26.957Z,1009.37
2023-03-20T00:53:26.948Z,1009.38
2023-03-20T00:54:26.948Z,1009.44
2023-03-20T00:55:26.963Z,1009.39
2023-03-20T00:56:26.923Z,1009.34
2023-03-20T00:57:26.902Z,1009.36
2023-03-20T00:58:26.890Z,1009.32
2023-03-20T00:59:26.888Z,1009.32
2023-03-20T01:00:26.918Z,1009.34
2023-03-20T01:01:26.850Z,1009.35
2023-03-20T01:02:27.007Z,1009.33
2023-03-20T01:03:26.848Z,1009.35
2023-03-20T01:04:26.821Z,1009.32
2023-03-20T01:05:26.859Z,1009.32
2023-03-20T01:06:26.816Z,1009.32
2023-03-20T01:07:26.791Z,1009.29
2023-03-20T01:08:26.796Z,1009.26
2023-03-20T01:09:26.764Z,1009.35
2023-03-20T01:10:26.802Z,1009.33
2023-03-20T01:11:26.734Z,1009.31
2023-03-20T01:12:26.740Z,1009.24
2023-03-20T01:13:26.727Z,1009.24
2023-03-20T01:14:26.726Z,1009.26
2023-03-20T01:15:26.741Z,1009.27
2023-03-20T01:16:26.756Z,1009.28
2023-03-20T01:17:26.680Z,1009.29
2023-03-20T01:18:26.681Z,1009.28
2023-03-20T01:19:26.643Z,1009.28
2023-03-20T01:20:26.688Z,1009.27
2023-03-20T01:21:26.621Z,1009.30
2023-03-20T01:22:26.625Z,1009.29
2023-03-20T01:23:26.607Z,1009.37
2023-03-20T01:24:26.586Z,1009.31
2023-03-20T01:25:26.620Z,1009.36
2023-03-20T01:26:26.566Z,1009.33
2023-03-20T01:27:26.549Z,1009.33
2023-03-20T01:28:26.538Z,1009.34
2023-03-20T01:29:26.536Z,1009.29
2023-03-20T01:30:26.606Z,1009.34
2023-03-20T01:31:26.530Z,1009.32
2023-03-20T01:32:26.507Z,1009.33
2023-03-20T01:33:26.510Z,1009.31
2023-03-20T01:34:26.479Z,1009.29
2023-03-20T01:35:26.494Z,1009.28
2023-03-20T01:36:26.442Z,1009.30
2023-03-20T01:37:26.445Z,1009.32
2023-03-20T01:38:26.426Z,1009.27
2023-03-20T01:39:26.443Z,1009.31
2023-03-20T01:40:26.421Z,1009.27
2023-03-20T01:41:26.462Z,1009.25
2023-03-20T01:42:26.398Z,1009.26
2023-03-20T01:43:26.377Z,1009.28
2023-03-20T01:44:26.379Z,1009.24
2023-03-20T01:45:26.364Z,1009.24
2023-03-20T01:46:26.474Z,1009.24
2023-03-20T01:47:26.333Z,1009.24
2023-03-20T01:48:26.339Z,1009.20
2023-03-20T01:49:26.310Z,1009.25
2023-03-20T01:50:26.341Z,1009.22
2023-03-20T01:51:26.323Z,1009.22
2023-03-20T01:52:26.293Z,1009.22
2023-03-20T01:53:26.270Z,1009.27
2023-03-20T01:54:26.261Z,1009.22
2023-03-20T01:55:26.271Z,1009.24
2023-03-20T01:56:26.277Z,1009.23
2023-03-20T01:57:26.225Z,1009.19
2023-03-20T01:58:26.203Z,1009.23
2023-03-20T01:59:26.193Z,1009.20
2023-03-20T02:00:26.205Z,1009.21
2023-03-20T02:01:26.242Z,1009.21
2023-03-20T02:02:26.162Z,1009.22
2023-03-20T02:03:26.162Z,1009.25
2023-03-20T02:04:26.201Z,1009.26
2023-03-20T02:05:26.150Z,1009.23
2023-03-20T02:06:26.181Z,1009.21
2023-03-20T02:07:26.117Z,1009.22
2023-03-20T02:08:26.104Z,1009.23
2023-03-20T02:09:26.083Z,1009.23
2023-03-20T02:10:26.092Z,1009.21
2023-03-20T02:11:26.100Z,1009.20
2023-03-20T02:12:26.062Z,1009.23
2023-03-20T02:13:26.037Z,1009.23
2023-03-20T02:14:26.028Z,1009.24
2023-03-20T02:15:26.031Z,1009.22
2023-03-20T02:16:26.065Z,1009.22
2023-03-20T02:17:26.018Z,1009.19
2023-03-20T02:18:26.001Z,1009.23
2023-03-20T02:19:25.976Z,1009.21
2023-03-20T02:20:25.975Z,1009.28
2023-03-20T02:21:26.005Z,1009.26
2023-03-20T02:22:25.933Z,1009.24
2023-03-20T02:23:25.927Z,1009.27
2023-03-20T02:24:25.930Z,1009.27
2023-03-20T02:25:25.918Z,1009.26
2023-03-20T02:26:25.936Z,1009.27
2023-03-20T02:27:25.885Z,1009.27
2023-03-20T02:28:25.884Z,1009.29
2023-03-20T02:29:25.837Z,1009.26
2023-03-20T02:30:25.854Z,1009.23
2023-03-20T02:31:25.856Z,1009.30
2023-03-20T02:32:25.814Z,1009.28
2023-03-20T02:33:25.794Z,1009.24
2023-03-20T02:34:25.788Z,1009.22
2023-03-20T02:35:25.801Z,1009.24
2023-03-20T02:36:25.816Z,1009.26
2023-03-20T02:37:25.760Z,1009.27
2023-03-20T02:38:25.756Z,1009.23
2023-03-20T02:39:25.744Z,1009.26
2023-03-20T02:40:25.728Z,1009.20
2023-03-20T02:41:25.780Z,1009.27
2023-03-20T02:42:25.726Z,1009.24
2023-03-20T02:43:25.714Z,1009.22
2023-03-20T02:44:25.689Z,1009.25
2023-03-20T02:45:25.694Z,1009.18
2023-03-20T02:46:25.717Z,1009.15
2023-03-20T02:47:25.649Z,1009.16
2023-03-20T02:48:25.655Z,1009.18
2023-03-20T02:49:25.626Z,1009.18
2023-03-20T02:50:25.641Z,1009.18
2023-03-20T02:51:25.659Z,1009.21
2023-03-20T02:52:25.605Z,1009.19
2023-03-20T02:53:25.586Z,1009.18
2023-03-20T02:54:25.591Z,1009.19
2023-03-20T02:55:25.567Z,1009.21
2023-03-20T02:56:25.596Z,1009.17
2023-03-20T02:57:25.552Z,1009.19
2023-03-20T02:58:25.551Z,1009.17
2023-03-20T02:59:25.514Z,1009.18
2023-03-20T03:00:25.505Z,1009.14
2023-03-20T03:01:25.552Z,1009.15
2023-03-20T03:02:25.512Z,1009.14
2023-03-20T03:03:25.491Z,1009.12
2023-03-20T03:04:25.465Z,1009.11
2023-03-20T03:05:25.449Z,1009.09
2023-03-20T03:06:25.485Z,1009.09
2023-03-20T03:07:25.435Z,1009.06
2023-03-20T03:08:25.415Z,1009.08
2023-03-20T03:09:25.429Z,1009.06
2023-03-20T03:10:25.385Z,1009.06
2023-03-20T03:11:25.435Z,1009.06
2023-03-20T03:12:25.374Z,1009.07
2023-03-20T03:13:25.365Z,1009.07
2023-03-20T03:14:25.346Z,1009.08
2023-03-20T03:15:25.354Z,1009.08
2023-03-20T03:16:25.455Z,1009.07
2023-03-20T03:17:25.311Z,1009.07
2023-03-20T03:18:25.312Z,1009.06
2023-03-20T03:19:25.304Z,1009.06
2023-03-20T03:20:25.284Z,1009.05
2023-03-20T03:21:25.315Z,1009.07
2023-03-20T03:22:25.274Z,1009.07
2023-03-20T03:23:25.249Z,1009.09
2023-03-20T03:24:39.364Z,1009.04
2023-03-20T03:25:26.243Z,1009.02
2023-03-20T03:26:25.261Z,1009.04
2023-03-20T03:27:25.211Z,1009.06
2023-03-20T03:28:25.207Z,1009.04
2023-03-20T03:29:25.180Z,1009.01
2023-03-20T03:30:25.168Z,1009.02
2023-03-20T03:31:25.219Z,1009.03
2023-03-20T03:32:25.158Z,1009.03
2023-03-20T03:33:25.149Z,1009.03
2023-03-20T03:34:25.126Z,1009.04
2023-03-20T03:35:25.161Z,1009.01
2023-03-20T03:36:25.097Z,1009.00
2023-03-20T03:37:25.083Z,1008.96
2023-03-20T03:38:25.080Z,1008.98
2023-03-20T03:39:25.080Z,1008.94
2023-03-20T03:40:25.115Z,1008.97
2023-03-20T03:41:25.065Z,1009.00
2023-03-20T03:42:25.049Z,1009.06
2023-03-20T03:43:25.039Z,1009.03
2023-03-20T03:44:25.008Z,1009.06
2023-03-20T03:45:25.048Z,1009.00
2023-03-20T03:46:25.045Z,1009.07
2023-03-20T03:47:24.980Z,1009.00
2023-03-20T03:48:24.960Z,1008.99
2023-03-20T03:49:25.015Z,1009.03
2023-03-20T03:50:25.010Z,1009.00
2023-03-20T03:51:24.970Z,1008.99
2023-03-20T03:52:24.957Z,1008.95
2023-03-20T03:53:24.948Z,1008.97
2023-03-20T03:54:24.897Z,1009.01
2023-03-20T03:55:24.944Z,1008.99
2023-03-20T03:56:24.934Z,1008.95
2023-03-20T03:57:24.877Z,1008.96
2023-03-20T03:58:24.856Z,1008.99
2023-03-20T03:59:24.858Z,1008.99
2023-03-20T04:00:24.872Z,1008.98
2023-03-20T04:01:24.826Z,1008.96
2023-03-20T04:02:24.822Z,1008.97
2023-03-20T04:03:24.832Z,1009.02
2023-03-20T04:04:24.854Z,1009.00
2023-03-20T04:05:24.833Z,1009.06
2023-03-20T04:06:24.767Z,1009.03
2023-03-20T04:07:24.764Z,1009.04
2023-03-20T04:08:24.775Z,1009.05
2023-03-20T04:09:24.734Z,1009.07
2023-03-20T04:10:24.749Z,1009.07
2023-03-20T04:11:24.744Z,1009.07
2023-03-20T04:12:24.712Z,1009.05
2023-03-20T04:13:24.699Z,1009.09
2023-03-20T04:14:24.702Z,1009.08
2023-03-20T04:15:24.711Z,1009.10
2023-03-20T04:16:24.787Z,1009.11
2023-03-20T04:17:24.648Z,1009.12
2023-03-20T04:18:24.660Z,1009.08
2023-03-20T04:19:24.635Z,1009.16
2023-03-20T04:20:24.657Z,1009.16
2023-03-20T04:21:24.603Z,1009.17
2023-03-20T04:22:24.579Z,1009.17
2023-03-20T04:23:24.598Z,1009.15
2023-03-20T04:24:24.576Z,1009.15
2023-03-20T04:25:24.595Z,1009.13
2023-03-20T04:26:24.545Z,1009.16
2023-03-20T04:27:24.550Z,1009.21
2023-03-20T04:28:24.521Z,1009.20
2023-03-20T04:29:24.523Z,1009.21
2023-03-20T04:30:24.532Z,1009.18
2023-03-20T04:31:24.537Z,1009.17
2023-03-20T04:32:24.472Z,1009.15
2023-03-20T04:33:24.486Z,1009.17
2023-03-20T04:34:24.468Z,1009.17
2023-03-20T04:35:24.514Z,1009.19
2023-03-20T04:36:24.441Z,1009.25
2023-03-20T04:37:24.439Z,1009.23
2023-03-20T04:38:24.413Z,1009.20
2023-03-20T04:39:24.401Z,1009.28
2023-03-20T04:40:24.416Z,1009.20
2023-03-20T04:41:24.379Z,1009.20
2023-03-20T04:42:24.357Z,1009.25
2023-03-20T04:43:24.366Z,1009.24
2023-03-20T04:44:24.345Z,1009.22
2023-03-20T04:45:24.390Z,1009.21
2023-03-20T04:46:24.392Z,1009.25
2023-03-20T04:47:24.309Z,1009.25
2023-03-20T04:48:24.314Z,1009.29
2023-03-20T04:49:24.286Z,1009.28
2023-03-20T04:50:24.302Z,1009.34
2023-03-20T04:51:24.268Z,1009.34
2023-03-20T04:52:24.270Z,1009.36
2023-03-20T04:53:27.026Z,1009.37
2023-03-20T04:54:24.235Z,1009.36
2023-03-20T04:55:24.270Z,1009.42
2023-03-20T04:56:24.212Z,1009.45
2023-03-20T04:57:24.211Z,1009.42
2023-03-20T04:58:24.182Z,1009.47
2023-03-20T04:59:24.176Z,1009.48
2023-03-20T05:00:24.195Z,1009.51
2023-03-20T05:01:24.203Z,1009.49
2023-03-20T05:02:24.128Z,1009.48
2023-03-20T05:03:24.358Z,1009.52
2023-03-20T05:04:24.210Z,1009.53
2023-03-20T05:05:24.161Z,1009.54
2023-03-20T05:06:24.095Z,1009.53
2023-03-20T05:07:24.102Z,1009.56
2023-03-20T05:08:24.079Z,1009.56
2023-03-20T05:09:24.068Z,1009.57
2023-03-20T05:10:24.079Z,1009.57
2023-03-20T05:11:24.042Z,1009.57
2023-03-20T05:12:24.018Z,1009.60
2023-03-20T05:13:24.010Z,1009.57
2023-03-20T05:14:23.983Z,1009.64
2023-03-20T05:15:24.010Z,1009.63
2023-03-20T05:16:23.999Z,1009.64
2023-03-20T05:17:23.965Z,1009.66
2023-03-20T05:18:23.942Z,1009.64
2023-03-20T05:19:24.300Z,1009.65
2023-03-20T05:20:23.974Z,1009.68
2023-03-20T05:21:23.962Z,1009.68
2023-03-20T05:22:23.911Z,1009.67
2023-03-20T05:23:23.900Z,1009.62
2023-03-20T05:24:23.877Z,1009.64
2023-03-20T05:25:23.930Z,1009.62
2023-03-20T05:26:23.868Z,1009.62
2023-03-20T05:27:23.874Z,1009.63
2023-03-20T05:28:23.837Z,1009.67
2023-03-20T05:29:23.860Z,1009.64
2023-03-20T05:30:23.853Z,1009.66
2023-03-20T05:31:23.855Z,1009.66
2023-03-20T05:32:23.811Z,1009.65
2023-03-20T05:33:23.803Z,1009.65
2023-03-20T05:34:23.789Z,1009.69
2023-03-20T05:35:23.827Z,1009.67
2023-03-20T05:36:23.767Z,1009.67
2023-03-20T05:37:23.744Z,1009.70
2023-03-20T05:38:23.727Z,1009.70
2023-03-20T05:39:23.733Z,1009.69
2023-03-20T05:40:23.754Z,1009.64
2023-03-20T05:41:23.704Z,1009.67
2023-03-20T05:42:23.685Z,1009.65
2023-03-20T05:43:23.710Z,1009.68
2023-03-20T05:44:23.673Z,1009.70
2023-03-20T05:45:23.675Z,1009.73
2023-03-20T05:46:23.658Z,1009.75
2023-03-20T05:47:26.028Z,1009.72
2023-03-20T05:48:23.634Z,1009.74
2023-03-20T05:49:23.630Z,1009.75
2023-03-20T05:50:23.632Z,1009.72
2023-03-20T05:51:23.617Z,1009.77
2023-03-20T05:52:23.609Z,1009.82
2023-03-20T05:53:23.570Z,1009.78
2023-03-20T05:54:23.574Z,1009.79
2023-03-20T05:55:23.586Z,1009.83
2023-03-20T05:56:23.535Z,1009.83
2023-03-20T05:57:23.533Z,1009.82
2023-03-20T05:58:23.516Z,1009.81
2023-03-20T05:59:23.513Z,1009.76
2023-03-20T06:00:23.549Z,1009.75
2023-03-20T06:01:23.502Z,1009.75
2023-03-20T06:02:23.491Z,1009.76
2023-03-20T06:03:23.515Z,1009.79
2023-03-20T06:04:23.454Z,1009.82
2023-03-20T06:05:23.490Z,1009.80
2023-03-20T06:06:23.456Z,1009.80
2023-03-20T06:07:23.452Z,1009.79
2023-03-20T06:08:23.437Z,1009.76
2023-03-20T06:09:23.407Z,1009.75
2023-03-20T06:10:23.413Z,1009.77
2023-03-20T06:11:23.376Z,1009.75
2023-03-20T06:12:23.356Z,1009.79
2023-03-20T06:13:23.357Z,1009.78
2023-03-20T06:14:23.352Z,1009.77
2023-03-20T06:15:23.356Z,1009.82
2023-03-20T06:16:23.344Z,1009.83
2023-03-20T06:17:23.296Z,1009.81
2023-03-20T06:18:23.268Z,1009.82
2023-03-20T06:19:23.361Z,1009.82
2023-03-20T06:20:23.307Z,1009.84
2023-03-20T06:21:23.259Z,1009.85
2023-03-20T06:22:23.218Z,1009.81
2023-03-20T06:23:23.216Z,1009.87
2023-03-20T06:24:23.213Z,1009.89
2023-03-20T06:25:23.254Z,1009.91
2023-03-20T06:26:23.204Z,1009.93
2023-03-20T06:27:23.175Z,1009.91
2023-03-20T06:28:23.201Z,1009.93
2023-03-20T06:29:23.185Z,1009.99
2023-03-20T06:30:23.211Z,1009.95
2023-03-20T06:31:23.182Z,1010.00
2023-03-20T06:32:23.128Z,1009.98
2023-03-20T06:33:23.112Z,1009.97
2023-03-20T06:34:23.116Z,1009.92
2023-03-20T06:35:23.259Z,1009.93
2023-03-20T06:36:23.102Z,1009.95
2023-03-20T06:37:23.082Z,1009.92
2023-03-20T06:38:23.072Z,1009.93
2023-03-20T06:39:23.063Z,1009.94
2023-03-20T06:40:23.091Z,1009.93
2023-03-20T06:41:33.832Z,1009.95
2023-03-20T06:42:24.017Z,1009.98
2023-03-20T06:43:23.026Z,1009.96
2023-03-20T06:44:23.011Z,1010.00
2023-03-20T06:45:22.975Z,1009.95
2023-03-20T06:46:23.013Z,1009.93
2023-03-20T06:47:22.938Z,1009.97
2023-03-20T06:48:22.958Z,1009.91
2023-03-20T06:49:23.002Z,1009.99
2023-03-20T06:50:22.954Z,1009.94
2023-03-20T06:51:22.923Z,1009.94
2023-03-20T06:52:22.897Z,1009.97
2023-03-20T06:53:22.950Z,1009.96
2023-03-20T06:54:22.942Z,1010.01
2023-03-20T06:55:22.898Z,1010.01
2023-03-20T06:56:22.867Z,1010.05
2023-03-20T06:57:22.876Z,1009.96
2023-03-20T06:58:22.827Z,1009.98
2023-03-20T06:59:22.847Z,1009.93
2023-03-20T07:00:22.880Z,1009.95
2023-03-20T07:01:22.844Z,1009.93
2023-03-20T07:02:22.789Z,1010.03
2023-03-20T07:03:22.790Z,1009.99
2023-03-20T07:04:22.769Z,1009.97
2023-03-20T07:05:22.871Z,1010.01
2023-03-20T07:06:22.764Z,1009.99
2023-03-20T07:07:22.742Z,1009.97
2023-03-20T07:08:22.764Z,1009.99
2023-03-20T07:09:22.754Z,1009.98
2023-03-20T07:10:22.758Z,1010.00
2023-03-20T07:11:22.719Z,1009.96
2023-03-20T07:12:22.685Z,1009.96
2023-03-20T07:13:22.681Z,1009.97
2023-03-20T07:14:22.684Z,1009.96
2023-03-20T07:15:22.626Z,1010.05
2023-03-20T07:16:22.682Z,1010.05
2023-03-20T07:17:22.646Z,1010.09
2023-03-20T07:18:22.629Z,1010.12
2023-03-20T07:19:22.667Z,1010.08
2023-03-20T07:20:22.623Z,1010.12
2023-03-20T07:21:22.582Z,1010.16
2023-03-20T07:22:22.587Z,1010.18
2023-03-20T07:23:22.582Z,1010.15
2023-03-20T07:24:22.623Z,1010.16
2023-03-20T07:25:35.461Z,1010.14
2023-03-20T07:26:23.527Z,1010.09
2023-03-20T07:27:22.528Z,1010.12
2023-03-20T07:28:22.497Z,1010.09
2023-03-20T07:29:22.524Z,1010.14
2023-03-20T07:30:22.607Z,1010.08
2023-03-20T07:31:22.626Z,1010.02
2023-03-20T07:32:22.468Z,1010.05
2023-03-20T07:33:22.463Z,1010.06
2023-03-20T07:34:22.489Z,1010.07
2023-03-20T07:35:22.464Z,1010.05
2023-03-20T07:36:22.415Z,1010.04
2023-03-20T07:37:22.394Z,1010.06
2023-03-20T07:38:22.417Z,1010.08
2023-03-20T07:39:22.400Z,1010.07
2023-03-20T07:40:22.369Z,1010.11
2023-03-20T07:41:22.410Z,1010.14
2023-03-20T07:42:22.346Z,1010.15
2023-03-20T07:43:22.350Z,1010.25
2023-03-20T07:44:22.305Z,1010.25
2023-03-20T07:45:22.340Z,1010.27
2023-03-20T07:46:22.386Z,1010.23
2023-03-20T07:47:22.276Z,1010.26
2023-03-20T07:48:22.325Z,1010.27
2023-03-20T07:49:22.260Z,1010.27
2023-03-20T07:50:22.235Z,1010.29
2023-03-20T07:51:22.246Z,1010.27
2023-03-20T07:52:22.233Z,1010.26
2023-03-20T07:53:22.243Z,1010.22
2023-03-20T07:54:22.215Z,1010.26
2023-03-20T07:55:22.187Z,1010.31
2023-03-20T07:56:22.178Z,1010.30
2023-03-20T07:57:22.167Z,1010.27
2023-03-20T07:58:22.217Z,1010.26
2023-03-20T07:59:22.131Z,1010.26
2023-03-20T08:00:22.122Z,1010.23
2023-03-20T08:01:22.112Z,1010.22
2023-03-20T08:02:22.121Z,1010.28
2023-03-20T08:03:22.235Z,1010.26
2023-03-20T08:04:22.198Z,1010.25
2023-03-20T08:05:23.123Z,1010.31
2023-03-20T08:06:22.062Z,1010.27
2023-03-20T08:07:22.060Z,1010.28
2023-03-20T08:08:22.036Z,1010.26
2023-03-20T08:09:22.085Z,1010.31
2023-03-20T08:10:22.030Z,1010.28
2023-03-20T08:11:22.015Z,1010.28
2023-03-20T08:12:22.027Z,1010.31
2023-03-20T08:13:21.970Z,1010.30
2023-03-20T08:14:22.022Z,1010.28
2023-03-20T08:15:21.942Z,1010.31
2023-03-20T08:16:21.991Z,1010.33
2023-03-20T08:17:22.178Z,1010.32
2023-03-20T08:18:22.101Z,1010.30
2023-03-20T08:19:21.971Z,1010.31
2023-03-20T08:20:21.937Z,1010.33
2023-03-20T08:21:21.884Z,1010.32
2023-03-20T08:22:21.888Z,1010.33
2023-03-20T08:23:21.902Z,1010.30
2023-03-20T08:24:21.965Z,1010.32
2023-03-20T08:25:21.877Z,1010.30
2023-03-20T08:26:21.849Z,1010.25
2023-03-20T08:27:21.879Z,1010.32
2023-03-20T08:28:21.821Z,1010.35
2023-03-20T08:29:21.854Z,1010.33
2023-03-20T08:30:21.865Z,1010.33
2023-03-20T08:31:21.788Z,1010.32
2023-03-20T08:32:21.784Z,1010.38
2023-03-20T08:33:21.769Z,1010.36
2023-03-20T08:34:24.060Z,1010.34
2023-03-20T08:35:32.474Z,1010.39
2023-03-20T08:36:22.780Z,1010.36
2023-03-20T08:37:21.733Z,1010.40
2023-03-20T08:38:21.805Z,1010.41
2023-03-20T08:39:21.751Z,1010.36
2023-03-20T08:40:21.683Z,1010.38
2023-03-20T08:41:21.689Z,1010.32
2023-03-20T08:42:21.651Z,1010.36
2023-03-20T08:43:21.697Z,1010.36
2023-03-20T08:44:21.627Z,1010.34
2023-03-20T08:45:21.752Z,1010.37
2023-03-20T08:46:21.699Z,1010.36
2023-03-20T08:47:21.599Z,1010.37
2023-03-20T08:48:21.659Z,1010.34
2023-03-20T08:49:21.596Z,1010.39
2023-03-20T08:50:21.563Z,1010.37
2023-03-20T08:51:21.558Z,1010.39
2023-03-20T08:52:21.548Z,1010.37
2023-03-20T08:53:22.270Z,1010.38
2023-03-20T08:54:21.567Z,1010.44
2023-03-20T08:55:21.538Z,1010.42
2023-03-20T08:56:21.492Z,1010.44
2023-03-20T08:57:21.486Z,1010.42
2023-03-20T08:58:21.522Z,1010.41
2023-03-20T08:59:21.459Z,1010.45
2023-03-20T09:00:21.466Z,1010.42
2023-03-20T09:01:21.462Z,1010.41
2023-03-20T09:02:21.546Z,1010.42
2023-03-20T09:03:21.506Z,1010.48
2023-03-20T09:04:21.432Z,1010.47
2023-03-20T09:05:21.379Z,1010.47
2023-03-20T09:06:21.423Z,1010.48
2023-03-20T09:07:21.374Z,1010.50
2023-03-20T09:08:21.402Z,1010.48
2023-03-20T09:09:21.366Z,1010.53
2023-03-20T09:10:21.341Z,1010.52
2023-03-20T09:11:21.335Z,1010.51
2023-03-20T09:12:21.346Z,1010.58
2023-03-20T09:13:27.204Z,1010.59
2023-03-20T09:14:22.282Z,1010.59
2023-03-20T09:15:21.289Z,1010.53
2023-03-20T09:16:21.334Z,1010.56
2023-03-20T09:17:21.311Z,1010.59
2023-03-20T09:18:21.312Z,1010.61
2023-03-20T09:19:21.273Z,1010.62
2023-03-20T09:20:21.239Z,1010.58
2023-03-20T09:21:21.218Z,1010.64
2023-03-20T09:22:21.219Z,1010.66
2023-03-20T09:23:21.249Z,1010.66
2023-03-20T09:24:21.199Z,1010.69
2023-03-20T09:25:21.163Z,1010.71
2023-03-20T09:26:21.181Z,1010.71
2023-03-20T09:27:21.189Z,1010.79
2023-03-20T09:28:21.186Z,1010.77
2023-03-20T09:29:21.124Z,1010.78
2023-03-20T09:30:21.118Z,1010.77
2023-03-20T09:31:21.136Z,1010.77
2023-03-20T09:32:21.146Z,1010.80
2023-03-20T09:33:21.097Z,1010.80
2023-03-20T09:34:21.092Z,1010.80
2023-03-20T09:35:21.056Z,1010.84
2023-03-20T09:36:21.066Z,1010.88
2023-03-20T09:37:21.077Z,1010.94
2023-03-20T09:38:21.030Z,1010.90
2023-03-20T09:39:21.020Z,1010.89
2023-03-20T09:40:21.047Z,1010.88
2023-03-20T09:41:20.980Z,1010.87
2023-03-20T09:42:21.011Z,1010.87
2023-03-20T09:43:20.935Z,1010.85
2023-03-20T09:44:20.966Z,1010.79
2023-03-20T09:45:20.957Z,1010.79
2023-03-20T09:46:20.977Z,1010.84
2023-03-20T09:47:21.480Z,1010.84
2023-03-20T09:48:20.939Z,1010.80
2023-03-20T09:49:20.956Z,1010.73
2023-03-20T09:50:20.910Z,1010.71
2023-03-20T09:51:20.885Z,1010.66
2023-03-20T09:52:20.972Z,1010.75
2023-03-20T09:53:20.895Z,1010.79
2023-03-20T09:54:20.830Z,1010.87
2023-03-20T09:55:20.854Z,1010.94
2023-03-20T09:56:20.826Z,1010.96
2023-03-20T09:57:20.790Z,1010.95
2023-03-20T09:58:20.827Z,1011.00
2023-03-20T09:59:20.783Z,1011.06
2023-03-20T10:00:20.783Z,1011.07
2023-03-20T10:01:20.815Z,1011.08
2023-03-20T10:02:20.725Z,1011.06
2023-03-20T10:03:20.787Z,1011.09
2023-03-20T10:04:20.827Z,1011.10
2023-03-20T10:05:20.742Z,1011.06
2023-03-20T10:06:20.691Z,1011.06
2023-03-20T10:07:20.705Z,1011.08
2023-03-20T10:08:20.739Z,1011.05
2023-03-20T10:09:20.666Z,1011.12
2023-03-20T10:10:20.790Z,1011.09
2023-03-20T10:11:20.618Z,1011.09
2023-03-20T10:12:20.616Z,1011.05
2023-03-20T10:13:20.695Z,1011.09
2023-03-20T10:14:20.615Z,1011.10
2023-03-20T10:15:20.591Z,1011.05
2023-03-20T10:16:20.632Z,1011.03
2023-03-20T10:17:20.617Z,1011.08
2023-03-20T10:18:20.614Z,1011.05
2023-03-20T10:19:20.553Z,1011.08
2023-03-20T10:20:20.551Z,1011.08
2023-03-20T10:21:20.555Z,1011.03
2023-03-20T10:22:20.522Z,1010.98
2023-03-20T10:23:20.521Z,1011.00
2023-03-20T10:24:20.503Z,1011.01
2023-03-20T10:25:20.481Z,1011.03
2023-03-20T10:26:20.483Z,1010.98
2023-03-20T10:27:20.484Z,1010.99
2023-03-20T10:28:20.495Z,1010.97
2023-03-20T10:29:20.432Z,1010.90
2023-03-20T10:30:20.479Z,1010.96
2023-03-20T10:31:20.453Z,1010.95
2023-03-20T10:32:20.429Z,1010.94
2023-03-20T10:33:20.439Z,1010.93
2023-03-20T10:34:20.384Z,1010.90
2023-03-20T10:35:20.461Z,1010.93
2023-03-20T10:36:20.365Z,1010.94
2023-03-20T10:37:20.386Z,1010.91
2023-03-20T10:38:20.393Z,1010.94
2023-03-20T10:39:20.336Z,1010.98
2023-03-20T10:40:20.459Z,1010.93
2023-03-20T10:41:20.286Z,1010.96
2023-03-20T10:42:20.299Z,1010.93
2023-03-20T10:43:20.344Z,1010.91
2023-03-20T10:44:20.278Z,1010.92
2023-03-20T10:45:20.266Z,1010.95
2023-03-20T10:46:20.321Z,1010.91
2023-03-20T10:47:20.267Z,1010.96
2023-03-20T10:48:20.209Z,1010.97
2023-03-20T10:49:20.228Z,1010.98
2023-03-20T10:50:20.188Z,1011.04
2023-03-20T10:51:20.223Z,1011.03
2023-03-20T10:52:20.173Z,1011.04
2023-03-20T10:53:20.181Z,1011.06
2023-03-20T10:54:20.197Z,1011.07
2023-03-20T10:55:20.134Z,1011.13
2023-03-20T10:56:20.153Z,1011.11
2023-03-20T10:57:20.117Z,1011.11
2023-03-20T10:58:20.123Z,1011.11
2023-03-20T10:59:20.137Z,1011.17
2023-03-20T11:00:20.095Z,1011.14
2023-03-20T11:01:20.136Z,1011.20
2023-03-20T11:02:20.114Z,1011.19
2023-03-20T11:03:20.068Z,1011.21
2023-03-20T11:04:20.157Z,1011.17
2023-03-20T11:05:20.029Z,1011.15
2023-03-20T11:06:20.044Z,1011.19
2023-03-20T11:07:20.015Z,1011.14
2023-03-20T11:08:19.981Z,1011.14
2023-03-20T11:09:20.020Z,1011.17
2023-03-20T11:10:19.985Z,1011.18
2023-03-20T11:11:19.969Z,1011.22
2023-03-20T11:12:19.942Z,1011.19
2023-03-20T11:13:19.949Z,1011.20
2023-03-20T11:14:19.970Z,1011.18
2023-03-20T11:15:19.952Z,1011.18
2023-03-20T11:16:19.981Z,1011.20
2023-03-20T11:17:19.908Z,1011.18
2023-03-20T11:18:19.883Z,1011.15
2023-03-20T11:19:19.904Z,1011.15
2023-03-20T11:20:19.884Z,1011.17
2023-03-20T11:21:19.840Z,1011.14
2023-03-20T11:22:19.867Z,1011.17
2023-03-20T11:23:19.821Z,1011.11
2023-03-20T11:24:19.872Z,1011.11
2023-03-20T11:25:19.829Z,1011.14
2023-03-20T11:26:19.793Z,1011.17
2023-03-20T11:27:19.789Z,1011.14
2023-03-20T11:28:19.758Z,1011.09
2023-03-20T11:29:19.798Z,1011.10
2023-03-20T11:30:19.775Z,1011.09
2023-03-20T11:31:19.730Z,1011.11
2023-03-20T11:32:19.727Z,1011.05
2023-03-20T11:33:19.719Z,1011.10
2023-03-20T11:34:19.752Z,1011.10
2023-03-20T11:35:19.701Z,1011.11
2023-03-20T11:36:19.669Z,1011.09
2023-03-20T11:37:19.674Z,1011.09
2023-03-20T11:38:19.629Z,1011.11
2023-03-20T11:39:19.690Z,1011.08
2023-03-20T11:40:19.630Z,1011.07
2023-03-20T11:41:19.631Z,1011.13
2023-03-20T11:42:19.613Z,1011.11
2023-03-20T11:43:19.582Z,1011.12
2023-03-20T11:44:19.630Z,1011.07
2023-03-20T11:45:19.584Z,1011.11
2023-03-20T11:46:19.640Z,1011.08
2023-03-20T11:47:19.554Z,1011.08
2023-03-20T11:48:19.549Z,1011.04
2023-03-20T11:49:19.594Z,1011.05
2023-03-20T11:50:19.508Z,1011.05
2023-03-20T11:51:19.518Z,1011.09
2023-03-20T11:52:19.484Z,1011.08
2023-03-20T11:53:19.489Z,1011.11
2023-03-20T11:54:19.512Z,1011.13
2023-03-20T11:55:19.471Z,1011.12
2023-03-20T11:56:19.443Z,1011.10
2023-03-20T11:57:19.436Z,1011.09
2023-03-20T11:58:19.437Z,1011.08
2023-03-20T11:59:19.458Z,1011.07
2023-03-20T12:00:19.420Z,1011.10
2023-03-20T12:01:19.393Z,1011.08
2023-03-20T12:02:19.422Z,1011.05
2023-03-20T12:03:19.400Z,1011.04
2023-03-20T12:04:19.384Z,1011.01
2023-03-20T12:05:19.344Z,1011.01